Time;durP1;ratioP1;P1;durP2;ratioP2;P2;SDS_P1;SDS_P2;PMS_P1;PMS_P2;Temp;Humidity;BMP_temperature;BMP_pressure;BME280_temperature;BME280_humidity;BME280_pressure;Samples;Min_cycle;Max_cycle;Signal;HPM_P1;HPM_P2
2022/03/07 00:00:21;;;;;;;11.32;8.00;;;;;;;1.56;66.68;102662.03;5061564;28;20086;-83
2022/03/07 00:02:47;;;;;;;17.77;7.93;;;;;;;1.45;64.51;102658.25;5060727;28;20024;-83
2022/03/07 00:05:15;;;;;;;10.23;6.65;;;;;;;1.41;64.35;102652.06;5060669;28;20043;-83
2022/03/07 00:07:41;;;;;;;13.68;7.72;;;;;;;1.30;63.90;102655.22;5057152;28;20047;-83
2022/03/07 00:10:06;;;;;;;10.65;7.47;;;;;;;1.25;64.29;102665.50;5058623;28;20036;-83
2022/03/07 00:12:32;;;;;;;11.68;8.02;;;;;;;1.19;66.37;102670.56;5061939;28;20065;-83
2022/03/07 00:14:57;;;;;;;11.55;7.95;;;;;;;1.15;66.27;102658.28;5062076;28;20537;-83
2022/03/07 00:17:22;;;;;;;11.80;7.63;;;;;;;1.16;66.45;102665.25;5059363;28;20032;-83
2022/03/07 00:19:48;;;;;;;12.85;7.70;;;;;;;1.08;65.96;102658.97;5059693;28;20037;-82
2022/03/07 00:22:13;;;;;;;10.90;7.43;;;;;;;1.01;65.11;102652.69;5060495;28;20394;-83
2022/03/07 00:24:38;;;;;;;10.90;7.85;;;;;;;0.98;65.01;102658.72;5061541;28;20028;-83
2022/03/07 00:27:04;;;;;;;13.02;7.53;;;;;;;0.88;65.51;102648.84;5063959;28;20028;-83
2022/03/07 00:29:29;;;;;;;9.77;7.22;;;;;;;0.87;65.43;102654.03;5066603;28;20033;-83
2022/03/07 00:31:55;;;;;;;10.20;7.63;;;;;;;0.82;65.46;102653.91;5064554;28;20040;-83
2022/03/07 00:34:20;;;;;;;11.05;7.13;;;;;;;0.77;66.20;102658.97;5064646;28;20131;-83
2022/03/07 00:36:45;;;;;;;11.68;8.20;;;;;;;0.81;65.96;102662.56;5064752;28;20033;-83
2022/03/07 00:39:11;;;;;;;13.15;8.50;;;;;;;0.84;65.70;102661.72;5063907;28;20024;-83
2022/03/07 00:41:36;;;;;;;9.45;6.95;;;;;;;0.73;65.24;102651.91;5063757;28;21032;-82
2022/03/07 00:44:01;;;;;;;12.73;7.55;;;;;;;0.85;66.64;102680.03;5063638;28;20040;-83
2022/03/07 00:46:27;;;;;;;12.75;7.43;;;;;;;0.81;65.90;102666.88;5061717;28;20302;-83
2022/03/07 00:48:52;;;;;;;11.52;7.13;;;;;;;0.77;65.98;102665.91;5061887;28;20487;-83
2022/03/07 00:51:17;;;;;;;10.30;7.35;;;;;;;0.76;66.58;102664.13;5065816;28;20082;-83
2022/03/07 00:53:43;;;;;;;11.40;8.15;;;;;;;0.74;66.21;102658.88;5063720;28;20025;-83
2022/03/07 00:56:10;;;;;;;13.80;7.95;;;;;;;0.82;66.77;102666.91;5064881;28;20081;-83
2022/03/07 00:58:35;;;;;;;17.17;9.88;;;;;;;0.77;68.53;102664.16;5064334;28;20466;-82
2022/03/07 01:01:01;;;;;;;14.48;8.93;;;;;;;0.72;69.11;102670.09;5061995;28;20090;-83
2022/03/07 01:03:26;;;;;;;11.95;7.90;;;;;;;0.62;67.12;102661.13;5062929;28;20116;-83
2022/03/07 01:05:51;;;;;;;10.90;7.53;;;;;;;0.57;66.96;102665.31;5064427;28;20143;-82
2022/03/07 01:08:17;;;;;;;11.13;8.10;;;;;;;0.50;67.58;102666.81;5062429;28;20033;-82
2022/03/07 01:10:43;;;;;;;11.50;8.10;;;;;;;0.48;68.32;102662.44;5065506;28;20046;-83
2022/03/07 01:13:08;;;;;;;13.32;8.40;;;;;;;0.52;68.55;102663.41;5064182;28;20497;-83
2022/03/07 01:15:33;;;;;;;11.75;7.90;;;;;;;0.52;68.19;102666.00;5065683;28;20528;-83
2022/03/07 01:17:59;;;;;;;11.52;8.07;;;;;;;0.48;67.51;102667.63;5062399;28;20020;-83
2022/03/07 01:20:25;;;;;;;11.90;8.02;;;;;;;0.47;67.41;102671.97;5064847;28;20031;-83
2022/03/07 01:22:51;;;;;;;13.55;8.07;;;;;;;0.44;68.89;102671.84;5062410;28;20024;-83
2022/03/07 01:25:16;;;;;;;13.20;7.93;;;;;;;0.49;68.47;102674.59;5063715;28;20082;-83
2022/03/07 01:27:43;;;;;;;11.05;7.55;;;;;;;0.44;68.32;102665.78;5064450;28;20480;-83
2022/03/07 01:30:09;;;;;;;10.13;7.78;;;;;;;0.44;67.93;102671.84;5063390;28;20127;-82
2022/03/07 01:32:35;;;;;;;12.77;8.30;;;;;;;0.36;68.45;102670.72;5064148;28;20569;-83
2022/03/07 01:35:00;;;;;;;12.27;8.27;;;;;;;0.28;68.14;102661.81;5079779;28;20110;-83
2022/03/07 01:37:25;;;;;;;10.63;7.55;;;;;;;0.25;67.00;102670.41;5063872;28;20259;-83
2022/03/07 01:39:51;;;;;;;12.27;7.57;;;;;;;0.17;67.96;102658.88;5065676;28;20519;-83
2022/03/07 01:42:16;;;;;;;12.88;8.45;;;;;;;0.17;68.17;102656.25;5062788;28;20408;-82
2022/03/07 01:44:42;;;;;;;10.30;7.60;;;;;;;0.18;68.41;102660.63;5063927;28;20031;-83
2022/03/07 01:47:07;;;;;;;14.35;7.93;;;;;;;0.19;69.73;102665.00;5060687;28;20024;-83
2022/03/07 01:49:33;;;;;;;11.05;7.63;;;;;;;0.17;69.28;102658.88;5063163;28;20473;-83
2022/03/07 01:51:58;;;;;;;12.10;8.27;;;;;;;0.21;69.55;102658.13;5062969;28;20016;-83
2022/03/07 01:54:24;;;;;;;12.57;7.82;;;;;;;0.21;69.23;102657.25;5063173;28;20059;-83
2022/03/07 01:56:51;;;;;;;13.82;8.48;;;;;;;0.30;69.27;102667.06;5064623;28;20097;-83
2022/03/07 01:59:19;;;;;;;13.90;8.13;;;;;;;0.22;70.45;102654.69;5063437;28;20068;-83
2022/03/07 02:01:45;;;;;;;14.88;8.10;;;;;;;0.19;69.14;102662.41;5062668;28;20499;-82
2022/03/07 02:04:11;;;;;;;10.77;8.13;;;;;;;0.18;68.85;102652.81;5061699;28;20036;-82
2022/03/07 02:06:38;;;;;;;12.27;8.18;;;;;;;0.22;68.57;102648.59;5061446;28;20039;-83
2022/03/07 02:09:04;;;;;;;12.95;8.55;;;;;;;0.25;69.19;102657.41;5062180;28;20056;-82
2022/03/07 02:11:30;;;;;;;15.10;8.30;;;;;;;0.21;69.48;102652.91;5061973;28;20116;-82
2022/03/07 02:13:55;;;;;;;12.68;8.10;;;;;;;0.17;68.59;102642.38;5062943;28;20116;-83
2022/03/07 02:16:20;;;;;;;12.52;7.97;;;;;;;0.17;68.73;102645.84;5061096;28;20021;-83
2022/03/07 02:18:47;;;;;;;13.10;7.70;;;;;;;0.15;68.86;102655.34;5061703;28;20108;-83
2022/03/07 02:21:15;;;;;;;12.35;7.72;;;;;;;0.14;69.59;102652.66;5062659;28;20502;-82
2022/03/07 02:23:41;;;;;;;11.43;7.55;;;;;;;0.12;69.91;102650.03;5063535;28;20024;-83
2022/03/07 02:26:09;;;;;;;12.43;7.90;;;;;;;0.04;70.38;102640.22;5062830;28;20064;-82
2022/03/07 02:28:34;;;;;;;14.90;8.30;;;;;;;0.03;71.06;102641.06;5061870;28;20031;-83
2022/03/07 02:30:59;;;;;;;12.73;8.23;;;;;;;0.05;69.86;102636.78;5061494;28;20032;-83
2022/03/07 02:33:24;;;;;;;12.35;8.38;;;;;;;0.09;69.90;102636.03;5063834;28;20121;-83
2022/03/07 02:35:50;;;;;;;12.60;7.93;;;;;;;0.17;69.78;102642.38;5061606;28;20636;-83
2022/03/07 02:38:16;;;;;;;12.98;8.88;;;;;;;0.16;69.46;102635.41;5061103;28;21159;-83
2022/03/07 02:40:42;;;;;;;14.20;9.00;;;;;;;0.16;69.66;102633.69;5061533;28;20093;-83
2022/03/07 02:43:08;;;;;;;13.43;8.07;;;;;;;0.19;69.85;102641.59;5060615;28;20107;-83
2022/03/07 02:45:34;;;;;;;12.55;8.63;;;;;;;0.15;70.09;102634.53;5063003;28;20024;-83
2022/03/07 02:47:59;;;;;;;15.90;8.85;;;;;;;0.24;69.81;102644.34;5059918;28;20496;-83
2022/03/07 02:50:24;;;;;;;17.70;8.73;;;;;;;0.20;69.99;102645.97;5063209;28;20035;-83
2022/03/07 02:52:50;;;;;;;14.23;8.63;;;;;;;0.19;69.78;102644.22;5061798;28;20115;-83
2022/03/07 02:55:15;;;;;;;15.50;9.10;;;;;;;0.16;69.89;102640.63;5061021;28;20518;-83
2022/03/07 02:57:40;;;;;;;14.50;9.18;;;;;;;0.08;69.57;102621.28;5060294;28;20036;-83
2022/03/07 03:00:06;;;;;;;18.60;8.77;;;;;;;0.07;69.75;102642.94;5064102;28;20456;-83
2022/03/07 03:02:31;;;;;;;12.93;8.20;;;;;;;-0.03;69.32;102634.81;5058592;28;20036;-83
2022/03/07 03:04:57;;;;;;;12.93;8.40;;;;;;;-0.05;70.03;102638.19;5060601;28;20085;-83
2022/03/07 03:07:22;;;;;;;14.77;8.77;;;;;;;-0.07;70.32;102638.16;5060088;28;20042;-83
2022/03/07 03:09:47;;;;;;;15.18;9.38;;;;;;;-0.09;70.73;102631.16;5061939;28;20063;-83
2022/03/07 03:12:13;;;;;;;14.93;8.23;;;;;;;-0.08;69.68;102638.13;5060589;28;20111;-83
2022/03/07 03:14:39;;;;;;;13.23;8.85;;;;;;;-0.19;70.14;102629.94;5062389;28;20032;-83
2022/03/07 03:17:04;;;;;;;14.00;8.40;;;;;;;-0.17;70.24;102637.81;5061445;28;20059;-83
2022/03/07 03:19:30;;;;;;;13.68;8.57;;;;;;;-0.23;70.24;102628.13;5062035;28;20036;-83
2022/03/07 03:21:55;;;;;;;15.43;9.32;;;;;;;-0.18;70.58;102636.94;5061561;28;20056;-83
2022/03/07 03:24:20;;;;;;;14.68;8.93;;;;;;;-0.25;70.41;102629.75;5061646;28;20493;-83
2022/03/07 03:26:45;;;;;;;18.92;9.13;;;;;;;-0.26;70.62;102641.88;5061317;28;20037;-83
2022/03/07 03:29:11;;;;;;;15.63;9.57;;;;;;;-0.30;70.38;102642.59;5061902;28;20532;-83
2022/03/07 03:31:36;;;;;;;14.18;8.02;;;;;;;-0.29;70.67;102646.97;5062539;28;20028;-83
2022/03/07 03:34:01;;;;;;;13.85;8.02;;;;;;;-0.32;70.08;102639.09;5061629;28;20037;-83
2022/03/07 03:36:27;;;;;;;15.25;9.63;;;;;;;-0.36;70.34;102639.81;5063198;28;20403;-83
2022/03/07 03:38:52;;;;;;;17.08;8.77;;;;;;;-0.41;70.79;102637.91;5059571;28;20044;-83
2022/03/07 03:41:17;;;;;;;13.48;8.93;;;;;;;-0.46;71.10;102635.13;5062352;28;20047;-82
2022/03/07 03:43:43;;;;;;;14.88;8.98;;;;;;;-0.49;71.58;102644.53;5060690;28;20020;-83
2022/03/07 03:46:08;;;;;;;12.75;8.75;;;;;;;-0.53;70.62;102641.81;5059651;28;20484;-82
2022/03/07 03:48:33;;;;;;;14.25;9.25;;;;;;;-0.59;70.33;102646.81;5059044;28;20024;-83
2022/03/07 03:50:58;;;;;;;13.30;8.60;;;;;;;-0.61;70.23;102651.06;5061879;28;20350;-83
2022/03/07 03:53:24;;;;;;;12.43;8.45;;;;;;;-0.71;69.70;102643.78;5061589;28;20490;-83
2022/03/07 03:55:49;;;;;;;12.02;8.40;;;;;;;-0.74;70.08;102638.50;5060995;28;20036;-83
2022/03/07 03:58:14;;;;;;;14.90;8.45;;;;;;;-0.72;70.89;102651.53;5060489;28;20020;-83
2022/03/07 04:00:40;;;;;;;12.90;8.93;;;;;;;-0.78;71.40;102639.22;5066162;28;20578;-83
2022/03/07 04:03:05;;;;;;;14.93;9.27;;;;;;;-0.74;71.18;102643.69;5065760;28;20039;-83
2022/03/07 04:05:30;;;;;;;16.45;8.75;;;;;;;-0.71;71.61;102643.78;5064704;28;20032;-83
2022/03/07 04:07:56;;;;;;;15.13;9.68;;;;;;;-0.72;71.59;102639.44;5064238;28;20024;-83
2022/03/07 04:10:21;;;;;;;16.15;9.23;;;;;;;-0.67;71.46;102640.47;5064809;28;20041;-83
2022/03/07 04:12:46;;;;;;;21.42;10.10;;;;;;;-0.70;71.77;102652.44;5066164;28;20271;-83
2022/03/07 04:15:12;;;;;;;18.25;10.55;;;;;;;-0.69;72.49;102646.47;5066135;28;20021;-83
2022/03/07 04:17:39;;;;;;;16.10;10.15;;;;;;;-0.67;71.99;102655.16;5064065;28;20036;-83
2022/03/07 04:20:05;;;;;;;12.30;8.73;;;;;;;-0.64;72.25;102647.50;5065046;28;20078;-83
2022/03/07 04:22:30;;;;;;;16.17;9.60;;;;;;;-0.63;71.60;102650.13;5064619;28;20034;-83
2022/03/07 04:24:55;;;;;;;14.80;9.52;;;;;;;-0.66;70.73;102656.94;5065927;28;20040;-83
2022/03/07 04:27:20;;;;;;;12.45;8.90;;;;;;;-0.74;70.84;102650.59;5064410;28;20534;-83
2022/03/07 04:29:46;;;;;;;14.40;8.90;;;;;;;-0.76;71.29;102647.94;5067090;28;20120;-83
2022/03/07 04:32:12;;;;;;;15.20;9.45;;;;;;;-0.79;71.36;102647.84;5065027;28;20515;-83
2022/03/07 04:34:37;;;;;;;15.27;9.32;;;;;;;-0.79;72.15;102640.94;5065279;28;20032;-83
2022/03/07 04:37:03;;;;;;;15.20;8.98;;;;;;;-0.74;71.51;102643.69;5063920;28;20115;-83
2022/03/07 04:39:28;;;;;;;13.93;9.35;;;;;;;-0.69;71.57;102651.66;5066359;28;20098;-82
2022/03/07 04:41:53;;;;;;;14.07;9.93;;;;;;;-0.73;72.03;102636.78;5063440;28;20407;-82
2022/03/07 04:44:19;;;;;;;15.82;10.35;;;;;;;-0.69;71.77;102652.53;5064111;28;20502;-82
2022/03/07 04:46:44;;;;;;;16.42;10.27;;;;;;;-0.68;71.91;102643.91;5063089;28;20071;-82
2022/03/07 04:49:11;;;;;;;17.27;9.88;;;;;;;-0.69;72.28;102636.94;5063649;28;20035;-82
2022/03/07 04:51:37;;;;;;;17.55;9.60;;;;;;;-0.59;72.32;102641.63;5063605;28;20464;-82
2022/03/07 04:54:03;;;;;;;19.30;10.25;;;;;;;-0.61;72.11;102638.06;5064172;28;20028;-82
2022/03/07 04:56:28;;;;;;;17.73;9.98;;;;;;;-0.62;71.31;102641.50;5062889;28;20131;-82
2022/03/07 04:58:53;;;;;;;17.88;9.73;;;;;;;-0.69;70.96;102647.34;5063920;28;20027;-82
2022/03/07 05:01:19;;;;;;;16.95;10.38;;;;;;;-0.82;70.92;102646.00;5063677;28;20028;-82
2022/03/07 05:03:44;;;;;;;16.85;10.02;;;;;;;-0.85;71.32;102655.41;5063781;28;20024;-82
2022/03/07 05:06:10;;;;;;;16.83;9.75;;;;;;;-0.88;72.02;102652.72;5063854;28;20043;-82
2022/03/07 05:08:38;;;;;;;15.93;10.27;;;;;;;-0.96;71.99;102643.75;5062261;28;20032;-82
2022/03/07 05:11:03;;;;;;;20.80;10.10;;;;;;;-0.93;71.95;102651.63;5064170;28;20036;-82
2022/03/07 05:13:29;;;;;;;17.83;9.80;;;;;;;-0.95;71.87;102638.59;5064308;28;20032;-82
2022/03/07 05:15:54;;;;;;;15.68;10.02;;;;;;;-0.95;71.55;102645.50;5064783;28;20032;-82
2022/03/07 05:18:19;;;;;;;16.80;10.27;;;;;;;-0.98;72.48;102633.31;5063767;28;20021;-82
2022/03/07 05:20:45;;;;;;;16.88;9.52;;;;;;;-0.97;72.95;102635.09;5064099;28;20499;-82
2022/03/07 05:23:10;;;;;;;18.25;9.95;;;;;;;-0.92;73.29;102638.72;5064742;28;20035;-81
2022/03/07 05:25:35;;;;;;;15.90;9.57;;;;;;;-0.92;72.49;102643.03;5062765;28;20599;-81
2022/03/07 05:28:01;;;;;;;18.17;9.68;;;;;;;-0.96;72.22;102639.44;5063962;28;20040;-81
2022/03/07 05:30:26;;;;;;;18.40;9.77;;;;;;;-1.01;72.43;102638.41;5060540;28;20121;-81
2022/03/07 05:32:53;;;;;;;15.27;9.88;;;;;;;-1.01;72.69;102642.72;5063308;28;20487;-82
2022/03/07 05:35:21;;;;;;;19.85;11.02;;;;;;;-1.08;72.14;102642.47;5064376;28;20037;-81
2022/03/07 05:37:47;;;;;;;17.90;10.43;;;;;;;-1.11;72.51;102651.88;5063628;28;20054;-81
2022/03/07 05:40:13;;;;;;;17.73;10.45;;;;;;;-1.11;73.52;102657.94;5064393;28;20064;-81
2022/03/07 05:42:40;;;;;;;24.10;10.40;;;;;;;-1.15;73.28;102648.28;5060349;28;20480;-81
2022/03/07 05:45:07;;;;;;;15.70;9.10;;;;;;;-1.14;73.43;102650.03;5063451;28;20037;-81
2022/03/07 05:47:33;;;;;;;17.73;10.52;;;;;;;-1.09;72.67;102650.22;5062558;28;20400;-81
2022/03/07 05:49:58;;;;;;;18.73;10.88;;;;;;;-1.04;73.07;102649.53;5061906;28;20038;-81
2022/03/07 05:52:24;;;;;;;24.02;10.98;;;;;;;-1.07;73.09;102643.38;5062672;28;20035;-82
2022/03/07 05:54:49;;;;;;;20.63;10.55;;;;;;;-1.05;73.07;102657.28;5064022;28;20267;-81
2022/03/07 05:57:15;;;;;;;22.20;11.52;;;;;;;-1.00;72.77;102653.13;5061740;28;20135;-81
2022/03/07 05:59:40;;;;;;;17.83;10.55;;;;;;;-0.99;73.32;102654.91;5063361;28;20028;-81
2022/03/07 06:02:06;;;;;;;18.65;10.98;;;;;;;-0.90;72.55;102672.53;5063119;28;20041;-81
2022/03/07 06:04:31;;;;;;;18.50;10.85;;;;;;;-0.92;72.51;102659.50;5064940;28;20105;-81
2022/03/07 06:06:56;;;;;;;18.50;11.35;;;;;;;-0.91;72.64;102668.16;5062728;28;20501;-81
2022/03/07 06:09:21;;;;;;;20.85;11.70;;;;;;;-0.95;72.70;102661.97;5063600;28;20032;-80
2022/03/07 06:11:47;;;;;;;20.83;11.68;;;;;;;-0.90;73.25;102665.63;5063419;28;20031;-81
2022/03/07 06:14:12;;;;;;;20.52;11.73;;;;;;;-0.88;72.87;102666.56;5062263;28;20025;-81
2022/03/07 06:16:37;;;;;;;21.17;11.32;;;;;;;-0.84;72.92;102673.66;5063885;28;20032;-81
2022/03/07 06:19:03;;;;;;;18.98;10.73;;;;;;;-0.86;72.78;102670.09;5093404;28;20617;-81
2022/03/07 06:21:28;;;;;;;23.88;11.50;;;;;;;-0.82;73.38;102681.47;5065962;28;20040;-81
2022/03/07 06:23:53;;;;;;;18.30;10.35;;;;;;;-0.88;72.96;102679.56;5062140;28;20507;-80
2022/03/07 06:26:19;;;;;;;24.20;10.75;;;;;;;-0.85;72.49;102686.56;5062218;28;20033;-81
2022/03/07 06:28:44;;;;;;;23.05;10.60;;;;;;;-0.90;73.10;102688.09;5063012;28;20036;-80
2022/03/07 06:31:09;;;;;;;20.27;11.32;;;;;;;-0.87;73.46;102693.41;5062640;28;20372;-80
2022/03/07 06:33:35;;;;;;;21.30;11.57;;;;;;;-0.91;72.94;102684.63;5064565;28;20055;-81
2022/03/07 06:36:00;;;;;;;20.58;10.77;;;;;;;-0.89;72.93;102687.25;5063223;28;20036;-81
2022/03/07 06:38:25;;;;;;;26.33;11.93;;;;;;;-0.83;72.92;102695.31;5060852;28;20487;-81
2022/03/07 06:40:51;;;;;;;19.35;11.32;;;;;;;-0.84;72.99;102694.41;5060562;28;20124;-81
2022/03/07 06:43:16;;;;;;;16.23;11.02;;;;;;;-0.78;72.99;102697.22;5062122;28;20545;-80
2022/03/07 06:45:41;;;;;;;19.13;11.40;;;;;;;-0.76;72.97;102705.06;5065541;28;20032;-81
2022/03/07 06:48:07;;;;;;;22.88;12.63;;;;;;;-0.78;72.84;102692.03;5061461;28;20083;-81
2022/03/07 06:50:32;;;;;;;24.23;11.98;;;;;;;-0.76;73.19;102692.09;5060680;28;20031;-81
2022/03/07 06:52:58;;;;;;;20.52;11.48;;;;;;;-0.62;73.17;102698.66;5060766;28;20496;-80
2022/03/07 06:55:24;;;;;;;19.88;11.02;;;;;;;-0.57;73.35;102704.00;5061461;28;20035;-80
2022/03/07 06:57:49;;;;;;;19.63;12.18;;;;;;;-0.59;72.76;102696.16;5061534;28;20047;-80
2022/03/07 07:00:16;;;;;;;18.20;11.75;;;;;;;-0.53;73.04;102698.09;5061737;28;20035;-80
2022/03/07 07:02:42;;;;;;;18.33;11.90;;;;;;;-0.46;72.26;102701.81;5061072;28;20471;-80
2022/03/07 07:05:08;;;;;;;29.83;12.60;;;;;;;-0.41;71.94;102700.25;5060969;28;20490;-81
2022/03/07 07:07:35;;;;;;;22.83;11.85;;;;;;;-0.39;71.82;102691.66;5063148;28;20043;-80
2022/03/07 07:10:01;;;;;;;19.52;11.82;;;;;;;-0.24;72.83;102706.00;5060782;28;20097;-81
2022/03/07 07:12:26;;;;;;;23.75;12.77;;;;;;;-0.19;72.84;102701.84;5060139;28;20032;-81
2022/03/07 07:14:52;;;;;;;23.90;11.75;;;;;;;-0.12;72.41;102698.63;5062276;28;20025;-80
2022/03/07 07:17:17;;;;;;;27.15;13.02;;;;;;;-0.12;71.74;102696.91;5060094;28;20375;-80
2022/03/07 07:19:43;;;;;;;19.52;12.35;;;;;;;-0.07;71.65;102691.88;5059013;28;20428;-81
2022/03/07 07:22:09;;;;;;;20.77;13.25;;;;;;;0.02;71.31;102701.69;5061820;28;20033;-80
2022/03/07 07:24:34;;;;;;;19.60;11.63;;;;;;;0.05;71.73;102688.78;5061356;28;20042;-80
2022/03/07 07:27:00;;;;;;;25.88;13.88;;;;;;;0.11;71.12;102697.69;5060740;28;20036;-80
2022/03/07 07:29:25;;;;;;;22.02;12.27;;;;;;;0.24;71.56;102696.38;5061761;28;20086;-80
2022/03/07 07:31:51;;;;;;;22.17;13.10;;;;;;;0.33;71.26;102694.06;5061835;28;20027;-80
2022/03/07 07:34:17;;;;;;;23.02;12.88;;;;;;;0.41;71.63;102694.28;5059063;28;20017;-81
2022/03/07 07:36:43;;;;;;;21.65;12.98;;;;;;;0.53;70.86;102701.59;5060726;28;20048;-81
2022/03/07 07:39:08;;;;;;;23.85;12.90;;;;;;;0.59;70.86;102701.78;5062166;28;20029;-81
2022/03/07 07:41:34;;;;;;;26.02;13.68;;;;;;;0.65;71.04;102696.75;5061600;28;20115;-80
2022/03/07 07:43:59;;;;;;;21.13;12.45;;;;;;;0.80;70.89;102709.38;5060153;28;20154;-80
2022/03/07 07:46:24;;;;;;;20.63;13.27;;;;;;;0.91;70.72;102700.16;5059455;28;20214;-81
2022/03/07 07:48:50;;;;;;;21.92;13.98;;;;;;;0.97;69.15;102703.81;5058992;28;21216;-80
2022/03/07 07:51:15;;;;;;;21.63;12.77;;;;;;;1.03;69.43;102700.53;5060119;28;20032;-81
2022/03/07 07:53:40;;;;;;;20.30;12.13;;;;;;;1.20;69.73;102706.19;5064045;28;20472;-81
2022/03/07 07:56:06;;;;;;;20.80;13.43;;;;;;;1.23;69.12;102711.50;5060453;28;20025;-80
2022/03/07 07:58:31;;;;;;;23.60;13.40;;;;;;;1.36;68.97;102715.34;5058609;28;20028;-81
2022/03/07 08:00:57;;;;;;;22.23;12.98;;;;;;;1.50;68.58;102714.00;5061564;28;20529;-81
2022/03/07 08:03:22;;;;;;;24.92;13.00;;;;;;;1.61;68.63;102709.06;5060317;28;20035;-81
2022/03/07 08:05:50;;;;;;;19.67;13.10;;;;;;;1.72;68.95;102715.44;5058083;28;20070;-81
2022/03/07 08:08:16;;;;;;;19.50;12.50;;;;;;;1.87;67.75;102713.25;5058482;28;20051;-81
2022/03/07 08:10:41;;;;;;;24.35;13.23;;;;;;;2.13;67.59;102705.19;5062008;28;20118;-81
2022/03/07 08:13:06;;;;;;;20.27;13.43;;;;;;;2.54;67.38;102725.31;5061577;28;20472;-81
2022/03/07 08:15:32;;;;;;;22.55;12.50;;;;;;;2.91;65.95;102718.31;5060167;28;20037;-81
2022/03/07 08:17:57;;;;;;;18.50;11.90;;;;;;;3.20;64.43;102724.13;5057999;28;20017;-81
2022/03/07 08:20:23;;;;;;;22.00;12.32;;;;;;;3.42;64.04;102722.84;5060774;28;21189;-80
2022/03/07 08:22:49;;;;;;;19.40;11.77;;;;;;;3.79;62.58;102726.16;5061038;28;20041;-81
2022/03/07 08:25:15;;;;;;;15.20;10.93;;;;;;;4.04;61.22;102719.59;5063175;28;20033;-81
2022/03/07 08:27:41;;;;;;;18.40;10.77;;;;;;;4.26;60.50;102716.50;5058314;28;20082;-81
2022/03/07 08:30:12;;;;;;;15.30;9.98;;;;;;;4.35;58.89;102713.13;5062412;28;20029;-81
2022/03/07 08:32:40;;;;;;;17.02;10.75;;;;;;;4.66;59.25;102714.47;5060098;28;20563;-81
2022/03/07 08:35:06;;;;;;;13.82;9.65;;;;;;;5.05;56.88;102719.38;5060318;28;20416;-82
2022/03/07 08:37:32;;;;;;;16.40;9.90;;;;;;;5.29;56.93;102715.28;5060156;28;20492;-82
2022/03/07 08:39:58;;;;;;;14.30;9.38;;;;;;;5.40;56.67;102713.66;5061361;28;20025;-82
2022/03/07 08:42:23;;;;;;;14.02;9.75;;;;;;;5.68;54.01;102706.09;5059238;28;20036;-83
2022/03/07 08:44:51;;;;;;;14.82;9.13;;;;;;;5.88;53.17;102718.56;5060838;28;20028;-81
2022/03/07 08:47:16;;;;;;;17.48;9.52;;;;;;;6.22;51.35;102723.25;5063941;28;21637;-82
2022/03/07 08:49:42;;;;;;;12.60;7.97;;;;;;;6.01;50.49;102716.06;5064478;28;20036;-82
2022/03/07 08:52:08;;;;;;;14.02;9.13;;;;;;;6.33;52.42;102721.56;5064478;28;20147;-83
2022/03/07 08:54:33;;;;;;;13.75;9.43;;;;;;;6.76;50.43;102712.25;5065299;28;20039;-83
2022/03/07 08:56:59;;;;;;;18.10;10.40;;;;;;;7.26;48.78;102708.09;5064706;28;20024;-83
2022/03/07 08:59:27;;;;;;;21.08;11.90;;;;;;;7.75;47.60;102709.09;5062383;28;20139;-83
2022/03/07 09:01:53;;;;;;;21.38;10.98;;;;;;;8.57;46.82;102704.72;5062975;28;20043;-83
2022/03/07 09:04:20;;;;;;;22.23;10.73;;;;;;;9.26;46.66;102688.66;5063655;28;20032;-84
2022/03/07 09:06:45;;;;;;;20.10;9.50;;;;;;;10.03;45.42;102689.91;5064211;28;20515;-84
2022/03/07 09:09:11;;;;;;;9.20;7.43;;;;;;;10.49;41.33;102700.06;5065653;28;20031;-84
2022/03/07 09:11:36;;;;;;;11.15;8.27;;;;;;;10.89;40.21;102694.38;5062524;28;20021;-84
2022/03/07 09:14:01;;;;;;;11.63;7.88;;;;;;;11.17;40.64;102695.78;5064088;28;20476;-84
2022/03/07 09:16:27;;;;;;;13.30;7.80;;;;;;;11.92;36.92;102700.00;5061153;28;20033;-83
2022/03/07 09:18:52;;;;;;;9.60;6.82;;;;;;;11.96;36.40;102693.78;5062131;28;20036;-83
2022/03/07 09:21:17;;;;;;;8.68;6.93;;;;;;;11.16;37.19;102694.03;5065135;28;20475;-83
2022/03/07 09:23:43;;;;;;;9.40;6.50;;;;;;;11.37;35.17;102697.28;5065083;28;20036;-83
2022/03/07 09:26:09;;;;;;;13.77;6.97;;;;;;;12.04;36.91;102701.59;5064364;28;20187;-84
2022/03/07 09:28:35;;;;;;;7.07;5.45;;;;;;;12.48;35.18;102692.00;5062435;28;20119;-83
2022/03/07 09:31:00;;;;;;;7.75;6.07;;;;;;;12.97;33.55;102683.09;5063958;28;20131;-83
2022/03/07 09:33:27;;;;;;;7.68;5.97;;;;;;;12.66;32.34;102680.16;5064660;28;20034;-84
2022/03/07 09:35:52;;;;;;;9.75;6.07;;;;;;;13.18;32.69;102685.28;5062821;28;20067;-83
2022/03/07 09:38:17;;;;;;;8.50;5.97;;;;;;;13.45;32.34;102688.28;5062848;28;20570;-83
2022/03/07 09:40:43;;;;;;;11.07;6.30;;;;;;;13.62;31.50;102688.75;5064374;28;20799;-83
2022/03/07 09:43:08;;;;;;;7.85;6.30;;;;;;;14.34;31.15;102681.66;5064221;28;20075;-84
2022/03/07 09:45:34;;;;;;;9.60;6.22;;;;;;;15.13;30.10;102686.56;5062257;28;20536;-84
2022/03/07 09:47:59;;;;;;;7.25;5.82;;;;;;;15.71;29.54;102670.56;5060803;28;20119;-84
2022/03/07 09:50:25;;;;;;;5.35;4.28;;;;;;;15.78;27.70;102672.13;5062820;28;20107;-84
2022/03/07 09:52:50;;;;;;;10.10;5.57;;;;;;;15.64;28.61;102679.69;5064945;28;20095;-84
2022/03/07 09:55:17;;;;;;;7.43;5.88;;;;;;;15.65;28.62;102668.97;5064598;28;20111;-84
2022/03/07 09:57:44;;;;;;;7.93;5.75;;;;;;;16.16;26.78;102675.31;5063686;28;20436;-84
2022/03/07 10:00:10;;;;;;;6.72;4.90;;;;;;;16.17;28.41;102669.03;5061052;28;20059;-83
2022/03/07 10:02:36;;;;;;;6.10;4.65;;;;;;;16.48;26.21;102668.84;5061170;28;21945;-83
2022/03/07 10:05:03;;;;;;;6.68;5.22;;;;;;;16.30;27.38;102655.22;5063063;28;20189;-83
2022/03/07 10:07:29;;;;;;;7.28;5.40;;;;;;;17.49;25.78;102665.06;5061203;28;20448;-83
2022/03/07 10:10:08;;;;;;;6.32;5.72;;;;;;;17.84;26.91;102663.63;5058600;28;20039;-84
2022/03/07 10:12:33;;;;;;;6.50;4.82;;;;;;;18.05;23.74;102657.41;5060813;28;20033;-83
2022/03/07 10:15:11;;;;;;;5.20;4.38;;;;;;;17.73;25.89;102653.38;5059832;28;20529;-83
2022/03/07 10:17:40;;;;;;;5.18;4.30;;;;;;;17.98;24.65;102658.56;5061992;28;20080;-84
2022/03/07 10:20:06;;;;;;;5.65;4.95;;;;;;;18.53;23.24;102650.81;5061648;28;20073;-84
2022/03/07 10:22:32;;;;;;;5.93;4.70;;;;;;;18.61;23.94;102647.81;5060811;28;20108;-84
2022/03/07 10:24:59;;;;;;;5.80;4.22;;;;;;;18.35;22.87;102660.53;5060816;28;20472;-84
2022/03/07 10:27:28;;;;;;;6.18;4.20;;;;;;;18.58;23.76;102642.59;5062595;28;20032;-83
2022/03/07 10:29:54;;;;;;;6.30;4.40;;;;;;;17.86;23.32;102643.06;5061194;28;20019;-83
2022/03/07 10:32:20;;;;;;;5.00;4.05;;;;;;;17.80;23.90;102641.47;5060348;28;20036;-83
2022/03/07 10:34:45;;;;;;;5.13;4.40;;;;;;;18.44;22.48;102640.53;5061185;28;20503;-84
2022/03/07 10:37:12;;;;;;;5.00;4.05;;;;;;;18.67;23.21;102652.03;5062293;28;20471;-83
2022/03/07 10:39:44;;;;;;;8.75;4.32;;;;;;;19.40;23.05;102632.50;5061880;28;20025;-84
2022/03/07 10:42:15;;;;;;;5.40;4.30;;;;;;;19.16;22.21;102639.91;5061115;28;20032;-84
2022/03/07 10:44:41;;;;;;;6.72;3.85;;;;;;;19.34;21.55;102625.59;5061446;28;20418;-83
2022/03/07 10:47:18;;;;;;;3.60;3.17;;;;;;;19.31;23.07;102625.78;5059287;28;20491;-84
2022/03/07 10:50:09;;;;;;;6.25;4.07;;;;;;;18.61;24.39;102621.88;5060525;28;20490;-83
2022/03/07 10:52:41;;;;;;;4.73;3.97;;;;;;;18.99;22.29;102613.03;5057979;28;20139;-84
2022/03/07 10:55:09;;;;;;;4.30;3.97;;;;;;;18.84;22.35;102609.28;5059788;28;20374;-84
2022/03/07 10:57:37;;;;;;;5.50;4.22;;;;;;;19.10;21.24;102598.16;5060976;28;20032;-83
2022/03/07 11:00:15;;;;;;;4.82;4.40;;;;;;;19.37;22.46;102598.66;5061665;28;20042;-83
2022/03/07 11:02:43;;;;;;;4.78;4.30;;;;;;;19.48;20.55;102597.25;5059800;28;20492;-83
2022/03/07 11:05:10;;;;;;;5.28;4.32;;;;;;;18.95;21.35;102592.69;5061351;28;20028;-83
2022/03/07 11:07:44;;;;;;;6.40;4.30;;;;;;;19.19;22.18;102599.53;5062834;28;20488;-83
2022/03/07 11:10:11;;;;;;;5.55;4.70;;;;;;;19.02;22.43;102591.44;5062562;28;20111;-84
2022/03/07 11:12:37;;;;;;;8.65;4.90;;;;;;;18.79;22.91;102585.38;5060810;28;20498;-83